createdAt,value
2022-10-19T00:01:23.598Z,54.21
2022-10-19T00:03:56.179Z,54.32
2022-10-19T00:06:28.512Z,54.20
2022-10-19T00:09:01.884Z,54.26
2022-10-19T00:11:31.116Z,54.03
2022-10-19T00:14:00.504Z,54.00
2022-10-19T00:16:32.117Z,54.10
2022-10-19T00:19:02.443Z,53.92
2022-10-19T00:21:31.024Z,53.89
2022-10-19T00:23:59.454Z,54.16
2022-10-19T00:26:28.434Z,54.08
2022-10-19T00:28:57.471Z,54.02
2022-10-19T00:31:26.806Z,53.99
2022-10-19T00:33:57.640Z,53.99
2022-10-19T00:36:31.913Z,53.75
2022-10-19T00:39:00.444Z,53.99
2022-10-19T00:41:31.437Z,53.91
2022-10-19T00:44:02.583Z,54.04
2022-10-19T00:46:34.963Z,53.79
2022-10-19T00:49:13.575Z,53.79
2022-10-19T00:51:46.076Z,53.88
2022-10-19T00:54:14.875Z,53.79
2022-10-19T00:56:45.355Z,53.86
2022-10-19T00:59:15.955Z,53.97
2022-10-19T01:01:46.644Z,54.00
2022-10-19T01:04:15.116Z,53.60
2022-10-19T01:06:55.955Z,53.74
2022-10-19T01:09:24.607Z,54.00
2022-10-19T01:12:02.414Z,53.96
2022-10-19T01:14:59.675Z,53.75
2022-10-19T01:17:55.625Z,53.69
2022-10-19T01:20:35.634Z,53.67
2022-10-19T01:23:23.677Z,53.88
2022-10-19T01:26:10.495Z,53.82
2022-10-19T01:29:02.701Z,53.92
2022-10-19T01:31:49.617Z,53.75
2022-10-19T01:34:28.046Z,53.88
2022-10-19T01:37:17.905Z,53.90
2022-10-19T01:39:49.936Z,53.88
2022-10-19T01:42:18.226Z,53.67
2022-10-19T01:44:51.386Z,53.55
2022-10-19T01:47:39.708Z,53.51
2022-10-19T01:50:48.526Z,53.49
2022-10-19T01:53:18.696Z,53.95
2022-10-19T01:55:50.534Z,53.90
2022-10-19T01:58:23.784Z,53.95
2022-10-19T02:00:53.684Z,53.58
2022-10-19T02:03:23.856Z,53.62
2022-10-19T02:05:53.584Z,53.82
2022-10-19T02:08:35.677Z,53.79
2022-10-19T02:11:05.265Z,53.64
2022-10-19T02:13:34.076Z,53.50
2022-10-19T02:16:04.615Z,53.46
2022-10-19T02:18:36.920Z,53.44
2022-10-19T02:21:06.335Z,53.72
2022-10-19T02:23:34.824Z,53.55
2022-10-19T02:26:03.884Z,53.65
2022-10-19T02:28:32.677Z,53.78
2022-10-19T02:31:02.207Z,53.54
2022-10-19T02:33:31.246Z,53.36
2022-10-19T02:36:00.255Z,53.30
2022-10-19T02:38:28.924Z,53.68
2022-10-19T02:41:07.625Z,53.31
2022-10-19T02:43:38.613Z,53.32
2022-10-19T02:46:28.967Z,53.55
2022-10-19T02:48:58.564Z,53.56
2022-10-19T02:51:32.319Z,53.29
2022-10-19T02:54:04.189Z,53.55
2022-10-19T02:56:35.254Z,53.57
2022-10-19T02:59:04.095Z,53.52
2022-10-19T03:01:32.917Z,53.73
2022-10-19T03:04:01.167Z,53.23
2022-10-19T03:06:29.734Z,53.04
2022-10-19T03:08:57.904Z,53.07
2022-10-19T03:11:26.493Z,53.03
2022-10-19T03:13:54.824Z,53.02
2022-10-19T03:16:23.435Z,52.71
2022-10-19T03:18:51.723Z,53.20
2022-10-19T03:21:20.247Z,53.43
2022-10-19T03:23:48.574Z,53.00
2022-10-19T03:26:18.218Z,53.23
2022-10-19T03:28:46.679Z,53.26
2022-10-19T03:31:15.165Z,53.32
2022-10-19T03:33:43.614Z,53.16
2022-10-19T03:36:21.260Z,52.74
2022-10-19T03:38:58.015Z,52.16
2022-10-19T03:41:29.325Z,52.95
2022-10-19T03:43:57.934Z,53.23
2022-10-19T03:46:27.187Z,53.41
2022-10-19T03:48:55.616Z,53.58
2022-10-19T03:51:28.600Z,53.42
2022-10-19T03:54:06.508Z,53.42
2022-10-19T03:56:36.894Z,53.65
2022-10-19T03:59:06.614Z,53.68
2022-10-19T04:01:38.649Z,53.81
2022-10-19T04:04:11.587Z,53.41
2022-10-19T04:06:43.296Z,53.34
2022-10-19T04:09:14.264Z,53.78
2022-10-19T04:11:43.474Z,53.86
2022-10-19T04:14:26.689Z,53.80
2022-10-19T04:17:02.588Z,53.70
2022-10-19T04:19:31.679Z,53.80
2022-10-19T04:22:00.159Z,53.82
2022-10-19T04:24:29.228Z,53.84
2022-10-19T04:26:57.657Z,53.46
2022-10-19T04:29:29.663Z,53.77
2022-10-19T04:31:59.864Z,53.51
2022-10-19T04:34:28.053Z,53.61
2022-10-19T04:36:59.646Z,53.66
2022-10-19T04:39:29.294Z,53.63
2022-10-19T04:41:57.859Z,53.21
2022-10-19T04:44:26.035Z,52.92
2022-10-19T04:46:54.378Z,53.21
2022-10-19T04:49:22.634Z,53.35
2022-10-19T04:51:51.126Z,53.23
2022-10-19T04:54:19.403Z,53.47
2022-10-19T04:56:48.065Z,53.48
2022-10-19T04:59:16.337Z,53.18
2022-10-19T05:01:47.356Z,53.60
2022-10-19T05:04:15.868Z,53.48
2022-10-19T05:06:44.369Z,53.30
2022-10-19T05:09:12.673Z,53.33
2022-10-19T05:11:41.191Z,53.45
2022-10-19T05:14:09.410Z,53.40
2022-10-19T05:16:37.962Z,53.68
2022-10-19T05:19:06.765Z,53.61
2022-10-19T05:21:35.875Z,53.62
2022-10-19T05:24:04.771Z,53.31
2022-10-19T05:26:33.693Z,53.37
2022-10-19T05:29:03.106Z,53.50
2022-10-19T05:31:33.855Z,53.31
2022-10-19T05:34:04.429Z,53.31
2022-10-19T05:36:38.125Z,53.32
2022-10-19T05:39:09.654Z,52.99
2022-10-19T05:41:38.177Z,53.18
2022-10-19T05:44:06.939Z,53.30
2022-10-19T05:46:35.454Z,53.71
2022-10-19T05:49:04.174Z,53.27
2022-10-19T05:51:32.896Z,53.22
2022-10-19T05:54:01.165Z,53.18
2022-10-19T05:56:31.098Z,53.07
2022-10-19T05:59:01.536Z,53.58
2022-10-19T06:01:31.314Z,53.68
2022-10-19T06:04:02.095Z,53.58
2022-10-19T06:06:31.891Z,53.44
2022-10-19T06:09:00.772Z,53.30
2022-10-19T06:11:34.257Z,52.67
2022-10-19T06:14:05.894Z,53.00
2022-10-19T06:16:35.337Z,53.02
2022-10-19T06:19:05.705Z,53.10
2022-10-19T06:21:35.414Z,53.16
2022-10-19T06:24:06.945Z,53.47
2022-10-19T06:26:36.073Z,53.20
2022-10-19T06:29:05.543Z,53.39
2022-10-19T06:31:36.891Z,53.31
2022-10-19T06:34:05.594Z,53.63
2022-10-19T06:36:34.761Z,53.03
2022-10-19T06:39:03.175Z,53.43
2022-10-19T06:41:32.867Z,53.55
2022-10-19T06:44:19.368Z,53.23
2022-10-19T06:46:47.946Z,53.47
2022-10-19T06:49:16.186Z,53.16
2022-10-19T06:51:44.932Z,53.09
2022-10-19T06:54:13.174Z,53.20
2022-10-19T06:56:41.876Z,53.20
2022-10-19T06:59:10.632Z,53.31
2022-10-19T07:01:39.237Z,53.18
2022-10-19T07:04:07.467Z,53.35
2022-10-19T07:06:35.933Z,53.33
2022-10-19T07:09:04.316Z,53.18
2022-10-19T07:11:32.918Z,53.10
2022-10-19T07:14:01.425Z,53.15
2022-10-19T07:16:29.960Z,53.21
2022-10-19T07:18:58.254Z,53.68
2022-10-19T07:21:26.855Z,53.62
2022-10-19T07:23:55.215Z,53.31
2022-10-19T07:26:27.866Z,53.85
2022-10-19T07:28:57.872Z,53.82
2022-10-19T07:31:28.849Z,53.40
2022-10-19T07:33:59.899Z,54.09
2022-10-19T07:36:30.733Z,54.20
2022-10-19T07:38:59.177Z,54.14
2022-10-19T07:41:27.892Z,54.19
2022-10-19T07:43:58.254Z,54.20
2022-10-19T07:46:29.632Z,54.09
2022-10-19T07:48:57.941Z,54.35
2022-10-19T07:54:00.542Z,54.36
2022-10-19T07:56:29.514Z,54.35
2022-10-19T07:58:59.773Z,54.21
2022-10-19T08:01:41.117Z,54.11
2022-10-19T08:06:58.307Z,53.95
2022-10-19T08:12:15.748Z,54.06
2022-10-19T08:14:44.257Z,53.89
2022-10-19T08:17:16.908Z,53.89
2022-10-19T08:19:48.156Z,53.69
2022-10-19T08:22:16.733Z,53.67
2022-10-19T08:24:45.196Z,53.73
2022-10-19T08:27:15.032Z,53.79
2022-10-19T08:29:43.319Z,53.50
2022-10-19T08:32:12.183Z,53.64
2022-10-19T08:34:40.555Z,53.37
2022-10-19T08:37:19.852Z,53.55
2022-10-19T08:39:54.486Z,53.48
2022-10-19T08:42:41.583Z,53.14
2022-10-19T08:45:39.273Z,52.99
2022-10-19T08:48:46.734Z,52.96
2022-10-19T08:51:15.286Z,52.70
2022-10-19T08:53:43.795Z,52.62
2022-10-19T08:56:49.382Z,52.43
2022-10-19T08:59:51.665Z,52.73
2022-10-19T09:02:56.994Z,52.78
2022-10-19T09:06:05.112Z,52.08
2022-10-19T09:08:36.869Z,52.14
2022-10-19T09:11:10.123Z,52.01
2022-10-19T09:14:04.123Z,51.44
2022-10-19T09:16:35.523Z,50.80
2022-10-19T09:19:13.585Z,50.72
2022-10-19T09:21:50.845Z,51.08
2022-10-19T09:24:30.463Z,51.05
2022-10-19T09:27:02.854Z,51.22
2022-10-19T09:29:42.055Z,51.15
2022-10-19T09:32:16.033Z,50.61
2022-10-19T09:35:27.788Z,50.61
2022-10-19T09:37:57.073Z,50.66
2022-10-19T09:40:30.872Z,50.56
2022-10-19T09:43:03.390Z,50.67
2022-10-19T09:45:52.522Z,51.00
2022-10-19T09:48:25.833Z,50.93
2022-10-19T09:51:00.397Z,51.51
2022-10-19T09:53:29.956Z,50.80
2022-10-19T09:56:04.476Z,50.89
2022-10-19T09:58:34.036Z,50.90
2022-10-19T10:01:03.330Z,50.55
2022-10-19T10:03:41.123Z,50.64
2022-10-19T10:06:15.376Z,50.45
2022-10-19T10:08:58.417Z,50.46
2022-10-19T10:11:35.273Z,50.56
2022-10-19T10:14:18.327Z,50.47
2022-10-19T10:16:47.094Z,50.31
2022-10-19T10:19:17.153Z,50.55
2022-10-19T10:21:56.726Z,50.83
2022-10-19T10:24:34.794Z,51.23
2022-10-19T10:27:05.640Z,51.43
2022-10-19T10:29:37.175Z,50.85
2022-10-19T10:32:06.450Z,50.79
2022-10-19T10:35:01.063Z,50.91
2022-10-19T10:37:34.727Z,50.45
2022-10-19T10:40:06.007Z,50.52
2022-10-19T10:42:37.970Z,50.72
2022-10-19T10:45:26.779Z,50.63
2022-10-19T10:47:55.648Z,50.82
2022-10-19T10:50:34.092Z,50.92
2022-10-19T10:53:05.663Z,50.72
2022-10-19T10:55:35.153Z,50.64
2022-10-19T10:58:17.179Z,50.37
2022-10-19T11:00:47.429Z,50.21
2022-10-19T11:03:29.682Z,51.03
2022-10-19T11:06:00.616Z,51.20
2022-10-19T11:08:37.931Z,50.72
2022-10-19T11:11:14.317Z,50.89
2022-10-19T11:14:01.004Z,51.08
2022-10-19T11:16:36.123Z,50.96
2022-10-19T11:19:40.254Z,51.07
2022-10-19T11:22:31.446Z,51.44
2022-10-19T11:25:39.593Z,50.87
2022-10-19T11:28:33.092Z,51.10
2022-10-19T11:31:17.134Z,50.63
2022-10-19T11:33:56.208Z,50.79
2022-10-19T11:36:42.024Z,50.59
2022-10-19T11:39:33.783Z,50.62
2022-10-19T11:42:19.565Z,50.46
2022-10-19T11:45:06.574Z,50.19
2022-10-19T11:48:09.747Z,50.06
2022-10-19T11:50:54.143Z,49.80
2022-10-19T11:53:45.725Z,49.76
2022-10-19T11:56:20.904Z,50.26
2022-10-19T11:58:58.074Z,50.11
2022-10-19T12:01:52.389Z,49.63
2022-10-19T12:04:23.826Z,50.36
2022-10-19T12:07:04.959Z,49.64
2022-10-19T12:09:57.907Z,49.48
2022-10-19T12:12:37.026Z,49.58
2022-10-19T12:15:11.901Z,49.62
2022-10-19T12:17:42.374Z,49.77
2022-10-19T12:20:32.794Z,49.61
2022-10-19T12:23:12.696Z,49.65
2022-10-19T12:25:44.514Z,49.36
2022-10-19T12:28:21.746Z,49.64
2022-10-19T12:30:51.523Z,49.27
2022-10-19T12:33:38.695Z,49.66
2022-10-19T12:36:10.931Z,49.30
2022-10-19T12:39:06.295Z,49.46
2022-10-19T12:41:52.792Z,49.11
2022-10-19T12:44:57.820Z,49.10
2022-10-19T12:47:27.496Z,48.76
2022-10-19T12:49:56.676Z,49.48
2022-10-19T12:52:39.153Z,48.89
2022-10-19T12:55:26.448Z,48.89
2022-10-19T12:58:07.084Z,48.84
2022-10-19T13:00:38.179Z,48.68
2022-10-19T13:03:16.283Z,48.32
2022-10-19T13:05:57.539Z,47.76
2022-10-19T13:08:32.772Z,47.77
2022-10-19T13:11:14.831Z,47.90
2022-10-19T13:14:15.006Z,47.65
2022-10-19T13:17:03.433Z,47.94
2022-10-19T13:19:32.354Z,47.69
2022-10-19T13:22:01.727Z,47.79
2022-10-19T13:24:34.299Z,47.57
2022-10-19T13:27:02.955Z,47.10
2022-10-19T13:29:40.178Z,46.99
2022-10-19T13:32:32.198Z,47.39
2022-10-19T13:35:27.455Z,47.14
2022-10-19T13:38:18.166Z,46.95
2022-10-19T13:40:49.556Z,46.87
2022-10-19T13:43:28.654Z,46.78
2022-10-19T13:46:06.859Z,46.67
2022-10-19T13:49:09.267Z,46.97
2022-10-19T13:52:03.792Z,46.85
2022-10-19T13:54:53.664Z,46.73
2022-10-19T13:58:04.624Z,47.05
2022-10-19T14:01:03.715Z,47.00
2022-10-19T14:04:00.175Z,46.59
2022-10-19T14:06:43.495Z,46.17
2022-10-19T14:09:38.678Z,46.46
2022-10-19T14:12:30.825Z,46.08
2022-10-19T14:15:00.340Z,45.88
2022-10-19T14:17:34.641Z,45.85
2022-10-19T14:20:04.706Z,45.72
2022-10-19T14:22:34.965Z,45.86
2022-10-19T14:25:07.738Z,45.64
2022-10-19T14:27:36.527Z,46.13
2022-10-19T14:30:05.962Z,45.90
2022-10-19T14:32:35.736Z,45.94
2022-10-19T14:35:07.255Z,46.06
2022-10-19T14:37:38.003Z,45.69
2022-10-19T14:40:17.293Z,46.05
2022-10-19T14:42:47.084Z,45.86
2022-10-19T14:45:35.524Z,45.69
2022-10-19T14:48:06.842Z,45.54
2022-10-19T14:50:50.592Z,45.73
2022-10-19T14:53:34.465Z,45.75
2022-10-19T14:56:08.294Z,45.61
2022-10-19T14:59:13.177Z,46.00
2022-10-19T15:01:41.729Z,46.00
2022-10-19T15:04:10.505Z,45.72
2022-10-19T15:06:42.963Z,46.19
2022-10-19T15:09:36.816Z,46.05
2022-10-19T15:12:15.404Z,45.82
2022-10-19T15:14:45.036Z,46.15
2022-10-19T15:17:31.515Z,46.15
2022-10-19T15:20:01.741Z,46.11
2022-10-19T15:22:34.096Z,45.92
2022-10-19T15:25:08.966Z,45.83
2022-10-19T15:27:39.936Z,45.83
2022-10-19T15:30:30.116Z,45.78
2022-10-19T15:33:11.514Z,45.70
2022-10-19T15:35:43.793Z,45.83
2022-10-19T15:38:27.954Z,46.07
2022-10-19T15:41:05.435Z,46.01
2022-10-19T15:43:37.836Z,46.20
2022-10-19T15:46:21.575Z,45.96
2022-10-19T15:48:57.328Z,46.61
2022-10-19T15:51:25.985Z,46.47
2022-10-19T15:54:06.024Z,46.63
2022-10-19T15:56:37.503Z,46.34
2022-10-19T15:59:18.156Z,47.04
2022-10-19T16:01:55.116Z,47.13
2022-10-19T16:04:24.596Z,47.04
2022-10-19T16:06:53.154Z,47.47
2022-10-19T16:09:22.375Z,47.83
2022-10-19T16:11:56.584Z,48.15
2022-10-19T16:14:26.813Z,48.50
2022-10-19T16:16:59.357Z,48.44
2022-10-19T16:19:27.547Z,48.56
2022-10-19T16:21:55.905Z,48.71
2022-10-19T16:24:24.130Z,48.55
2022-10-19T16:26:52.477Z,48.88
2022-10-19T16:29:22.565Z,49.35
2022-10-19T16:31:51.796Z,49.26
2022-10-19T16:34:19.885Z,49.11
2022-10-19T16:36:48.331Z,49.52
2022-10-19T16:39:16.537Z,49.45
2022-10-19T16:41:45.060Z,49.66
2022-10-19T16:44:13.637Z,49.87
2022-10-19T16:46:42.065Z,49.87
2022-10-19T16:49:10.249Z,49.69
2022-10-19T16:51:40.402Z,49.48
2022-10-19T16:54:11.209Z,50.20
2022-10-19T16:56:45.041Z,50.46
2022-10-19T16:59:15.663Z,50.48
2022-10-19T17:01:45.828Z,50.35
2022-10-19T17:04:15.877Z,50.33
2022-10-19T17:06:44.805Z,50.04
2022-10-19T17:09:37.084Z,49.72
2022-10-19T17:12:03.977Z,50.13
2022-10-19T17:14:32.587Z,50.30
2022-10-19T17:17:01.072Z,49.81
2022-10-19T17:19:29.338Z,50.05
2022-10-19T17:21:59.479Z,50.34
2022-10-19T17:24:27.788Z,50.22
2022-10-19T17:26:56.348Z,50.18
2022-10-19T17:29:24.629Z,50.24
2022-10-19T17:31:53.178Z,50.25
2022-10-19T17:34:21.615Z,49.94
2022-10-19T17:36:50.294Z,50.26
2022-10-19T17:39:25.605Z,50.56
2022-10-19T17:42:02.305Z,50.51
2022-10-19T17:44:31.844Z,50.63
2022-10-19T17:47:01.546Z,50.40
2022-10-19T17:49:30.253Z,50.43
2022-10-19T17:51:59.365Z,50.57
2022-10-19T17:54:27.667Z,50.32
2022-10-19T17:56:56.273Z,50.29
2022-10-19T17:59:34.630Z,50.07
2022-10-19T18:02:06.497Z,50.14
2022-10-19T18:07:05.105Z,50.15
2022-10-19T18:09:33.526Z,50.04
2022-10-19T18:12:06.385Z,50.68
2022-10-19T18:14:36.015Z,50.43
2022-10-19T18:17:04.633Z,50.33
2022-10-19T18:19:33.014Z,50.38
2022-10-19T18:22:01.694Z,50.45
2022-10-19T19:29:44.632Z,55.58
2022-10-19T19:32:13.848Z,55.76
2022-10-19T19:34:44.487Z,55.65
2022-10-19T19:37:14.187Z,55.59
2022-10-19T19:39:45.885Z,55.47
2022-10-19T19:42:15.295Z,55.71
2022-10-19T19:44:45.493Z,55.11
2022-10-19T19:47:14.913Z,54.64
2022-10-19T19:49:43.480Z,54.32
2022-10-19T19:52:12.532Z,54.18
2022-10-19T19:54:42.195Z,53.83
2022-10-19T19:57:11.763Z,53.81
2022-10-19T19:59:44.658Z,53.90
2022-10-19T20:02:13.760Z,53.48
2022-10-19T20:04:42.394Z,53.35
2022-10-19T20:07:11.355Z,53.46
2022-10-19T20:09:41.403Z,53.46
2022-10-19T20:12:09.991Z,53.33
2022-10-19T20:14:38.374Z,53.13
2022-10-19T20:17:08.007Z,53.42
2022-10-19T20:19:40.065Z,53.38
2022-10-19T20:22:08.999Z,53.21
2022-10-19T20:24:37.836Z,53.19
2022-10-19T20:27:08.433Z,53.29
2022-10-19T20:29:36.903Z,53.17
2022-10-19T20:32:05.666Z,53.08
2022-10-19T20:34:36.041Z,53.13
2022-10-19T20:37:05.161Z,53.07
2022-10-19T20:39:34.305Z,52.63
2022-10-19T20:42:02.731Z,53.05
2022-10-19T20:44:31.013Z,52.81
2022-10-19T20:46:59.465Z,52.77
2022-10-19T20:49:27.742Z,52.79
2022-10-19T20:51:56.262Z,52.58
2022-10-19T20:54:24.713Z,52.56
2022-10-19T20:56:53.105Z,52.60
2022-10-19T20:59:25.447Z,52.60
2022-10-19T21:01:55.829Z,52.64
2022-10-19T21:04:25.744Z,52.60
2022-10-19T22:19:35.528Z,50.96
2022-10-19T22:31:30.716Z,51.06
2022-10-19T22:34:07.839Z,50.95
2022-10-19T22:36:36.628Z,50.79
2022-10-19T22:39:06.197Z,50.93
2022-10-19T22:41:34.468Z,50.71
2022-10-19T22:44:03.117Z,50.79
2022-10-19T22:46:31.433Z,50.73
2022-10-19T22:49:00.036Z,50.83
2022-10-19T22:51:28.487Z,50.79
2022-10-19T22:53:57.029Z,50.51
2022-10-19T22:56:25.247Z,50.88
2022-10-19T22:58:53.719Z,50.71
2022-10-19T23:01:22.047Z,50.42
2022-10-19T23:03:50.532Z,50.71
2022-10-19T23:06:19.041Z,50.78
2022-10-19T23:08:47.671Z,50.61
2022-10-19T23:11:16.321Z,50.34
2022-10-19T23:13:44.745Z,50.46
2022-10-19T23:16:13.142Z,50.49
2022-10-19T23:18:41.675Z,50.60
2022-10-19T23:21:12.593Z,50.50
2022-10-19T23:23:41.520Z,50.72
2022-10-19T23:26:13.740Z,50.62
2022-10-19T23:28:44.730Z,50.44
2022-10-19T23:31:17.040Z,50.50
2022-10-19T23:33:46.087Z,50.32
2022-10-19T23:36:18.765Z,50.44
2022-10-19T23:38:49.159Z,50.32
2022-10-19T23:41:18.800Z,50.61
2022-10-19T23:43:47.368Z,50.52
2022-10-19T23:46:15.711Z,50.33
2022-10-19T23:48:44.207Z,50.41
2022-10-19T23:51:15.810Z,50.35
2022-10-19T23:53:47.034Z,50.41
2022-10-19T23:56:28.839Z,50.27
2022-10-19T23:58:57.502Z,50.22
